ACI340 NWWW-NLWW
Flight info
| Callsign | ACI340 |
|---|---|
| Flight time | 3h 44m |
| Altitude | 35000 |
| Route | LTO3E LTO B599 ANSIT/N0445F370 B599 NN B577 PARZO |
| Aircraft | A320/M-SDE3FGHIRWY/LB1 |
Departure
| Time | 2026-04-28 07:39 |
|---|---|
| Airport | La Tontouta International Airport (NWWW) |
Arrival
| Time | 2026-04-28 11:23 |
|---|---|
| Airport | Hihifo Airport (NLWW) |
| Time | Latitude | Longitude | Altitude | Speed | Heading |
|---|---|---|---|---|---|
| 2026-04-28 07:09 | -22.01411 | 166.21662 | 57 ft | 0 kts | 31° |
| 2026-04-28 07:30 | -22.01417 | 166.21657 | 57 ft | 4 kts | 31° |
| 2026-04-28 07:30 | -22.01441 | 166.21643 | 60 ft | 4 kts | 26° |
| 2026-04-28 07:31 | -22.01466 | 166.21631 | 60 ft | 4 kts | 17° |
| 2026-04-28 07:31 | -22.01491 | 166.21627 | 58 ft | 4 kts | 342° |
| 2026-04-28 07:31 | -22.01503 | 166.21634 | 57 ft | 0 kts | 301° |
| 2026-04-28 07:34 | -22.01499 | 166.21627 | 57 ft | 4 kts | 301° |
| 2026-04-28 07:34 | -22.01473 | 166.21580 | 54 ft | 11 kts | 301° |
| 2026-04-28 07:34 | -22.01428 | 166.21499 | 61 ft | 14 kts | 301° |
| 2026-04-28 07:34 | -22.01423 | 166.21424 | 61 ft | 11 kts | 233° |
| 2026-04-28 07:35 | -22.01474 | 166.21352 | 54 ft | 14 kts | 269° |
| 2026-04-28 07:35 | -22.01426 | 166.21259 | 58 ft | 15 kts | 302° |
| 2026-04-28 07:35 | -22.01372 | 166.21155 | 58 ft | 17 kts | 299° |
| 2026-04-28 07:35 | -22.01309 | 166.21037 | 52 ft | 19 kts | 300° |
| 2026-04-28 07:36 | -22.01238 | 166.20909 | 51 ft | 21 kts | 301° |
| 2026-04-28 07:36 | -22.01155 | 166.20764 | 55 ft | 24 kts | 301° |
| 2026-04-28 07:36 | -22.01063 | 166.20603 | 52 ft | 27 kts | 302° |
| 2026-04-28 07:36 | -22.00957 | 166.20420 | 46 ft | 30 kts | 302° |
| 2026-04-28 07:37 | -22.00842 | 166.20217 | 42 ft | 33 kts | 301° |
| 2026-04-28 07:37 | -22.00747 | 166.20048 | 40 ft | 11 kts | 302° |
| 2026-04-28 07:37 | -22.00695 | 166.20005 | 39 ft | 10 kts | 337° |
| 2026-04-28 07:37 | -22.00700 | 166.19976 | 39 ft | 4 kts | 190° |
| 2026-04-28 07:38 | -22.00720 | 166.19996 | 39 ft | 4 kts | 120° |
| 2026-04-28 07:38 | -22.00757 | 166.20066 | 38 ft | 33 kts | 120° |
| 2026-04-28 07:38 | -22.00999 | 166.20494 | 49 ft | 97 kts | 121° |
| 2026-04-28 07:38 | -22.01440 | 166.21278 | 56 ft | 146 kts | 121° |
| 2026-04-28 07:39 | -22.02027 | 166.22295 | 303 ft | 164 kts | 122° |
| 2026-04-28 07:39 | -22.02642 | 166.23353 | 831 ft | 170 kts | 121° |
| 2026-04-28 07:39 | -22.03272 | 166.24439 | 1389 ft | 176 kts | 121° |
| 2026-04-28 07:39 | -22.03966 | 166.25558 | 1830 ft | 186 kts | 132° |
| 2026-04-28 07:40 | -22.05043 | 166.26360 | 2260 ft | 192 kts | 159° |
| 2026-04-28 07:40 | -22.06394 | 166.26519 | 2638 ft | 204 kts | 189° |
| 2026-04-28 07:40 | -22.07716 | 166.25886 | 3060 ft | 214 kts | 212° |
| 2026-04-28 07:40 | -22.08987 | 166.24954 | 3461 ft | 230 kts | 219° |
| 2026-04-28 07:41 | -22.10137 | 166.23643 | 3789 ft | 252 kts | 236° |
| 2026-04-28 07:41 | -22.10836 | 166.21893 | 4451 ft | 256 kts | 262° |
| 2026-04-28 07:41 | -22.10665 | 166.20008 | 5286 ft | 254 kts | 291° |
| 2026-04-28 07:41 | -22.09810 | 166.18350 | 6124 ft | 253 kts | 311° |
| 2026-04-28 07:42 | -22.08495 | 166.17099 | 6906 ft | 254 kts | 330° |
| 2026-04-28 07:42 | -22.06836 | 166.16469 | 7653 ft | 256 kts | 354° |
| 2026-04-28 07:42 | -22.05067 | 166.16700 | 8367 ft | 261 kts | 21° |
| 2026-04-28 07:42 | -22.03551 | 166.17793 | 9024 ft | 271 kts | 45° |
| 2026-04-28 07:43 | -22.02326 | 166.19405 | 9369 ft | 289 kts | 46° |
| 2026-04-28 07:43 | -22.00822 | 166.20864 | 9972 ft | 293 kts | 32° |
| 2026-04-28 07:43 | -21.99180 | 166.22239 | 10308 ft | 312 kts | 47° |
| 2026-04-28 07:43 | -21.98082 | 166.24350 | 10463 ft | 337 kts | 69° |
| 2026-04-28 07:44 | -21.97485 | 166.26839 | 10886 ft | 348 kts | 77° |
| 2026-04-28 07:44 | -21.97019 | 166.29392 | 11299 ft | 350 kts | 76° |
| 2026-04-28 07:44 | -21.96504 | 166.31968 | 11827 ft | 355 kts | 75° |
| 2026-04-28 07:44 | -21.95870 | 166.34554 | 12429 ft | 358 kts | 71° |
| 2026-04-28 07:45 | -21.95114 | 166.37130 | 13030 ft | 362 kts | 69° |
| 2026-04-28 07:45 | -21.94269 | 166.39691 | 13625 ft | 365 kts | 67° |
| 2026-04-28 07:45 | -21.93364 | 166.42255 | 14141 ft | 368 kts | 66° |
| 2026-04-28 07:45 | -21.92431 | 166.44836 | 14633 ft | 371 kts | 66° |
| 2026-04-28 07:46 | -21.91495 | 166.47437 | 15104 ft | 374 kts | 66° |
| 2026-04-28 07:46 | -21.90573 | 166.50035 | 15564 ft | 378 kts | 66° |
| 2026-04-28 07:46 | -21.89640 | 166.52695 | 16063 ft | 382 kts | 66° |
| 2026-04-28 07:46 | -21.88705 | 166.55390 | 16546 ft | 386 kts | 66° |
| 2026-04-28 07:47 | -21.87765 | 166.58110 | 17063 ft | 389 kts | 66° |
| 2026-04-28 07:47 | -21.86817 | 166.60854 | 17571 ft | 392 kts | 66° |
| 2026-04-28 07:47 | -21.85860 | 166.63615 | 18063 ft | 396 kts | 66° |
| 2026-04-28 07:47 | -21.84892 | 166.66399 | 18524 ft | 399 kts | 66° |
| 2026-04-28 07:48 | -21.83915 | 166.69206 | 18952 ft | 402 kts | 66° |
| 2026-04-28 07:48 | -21.82928 | 166.72041 | 19389 ft | 406 kts | 66° |
| 2026-04-28 07:48 | -21.81936 | 166.74894 | 19829 ft | 409 kts | 66° |
| 2026-04-28 07:48 | -21.80934 | 166.77771 | 20268 ft | 412 kts | 66° |
| 2026-04-28 07:49 | -21.79924 | 166.80672 | 20706 ft | 416 kts | 65° |
| 2026-04-28 07:49 | -21.78906 | 166.83602 | 21135 ft | 419 kts | 65° |
| 2026-04-28 07:49 | -21.77879 | 166.86549 | 21569 ft | 423 kts | 65° |
| 2026-04-28 07:49 | -21.76842 | 166.89515 | 22012 ft | 425 kts | 65° |
| 2026-04-28 07:50 | -21.75797 | 166.92501 | 22467 ft | 427 kts | 65° |
| 2026-04-28 07:50 | -21.74745 | 166.95506 | 22907 ft | 430 kts | 65° |
| 2026-04-28 07:50 | -21.73688 | 166.98527 | 23329 ft | 433 kts | 65° |
| 2026-04-28 07:50 | -21.72621 | 167.01574 | 23709 ft | 436 kts | 65° |
| 2026-04-28 07:51 | -21.71547 | 167.04635 | 24037 ft | 439 kts | 64° |
| 2026-04-28 07:51 | -21.70466 | 167.07720 | 24378 ft | 442 kts | 64° |
| 2026-04-28 07:51 | -21.69382 | 167.10816 | 24712 ft | 444 kts | 64° |
| 2026-04-28 07:51 | -21.68290 | 167.13928 | 25037 ft | 446 kts | 64° |
| 2026-04-28 07:52 | -21.67191 | 167.17055 | 25361 ft | 448 kts | 64° |
| 2026-04-28 07:52 | -21.66082 | 167.20201 | 25681 ft | 451 kts | 64° |
| 2026-04-28 07:52 | -21.64969 | 167.23357 | 25990 ft | 453 kts | 64° |
| 2026-04-28 07:52 | -21.63854 | 167.26523 | 26363 ft | 453 kts | 64° |
| 2026-04-28 07:53 | -21.62736 | 167.29696 | 26657 ft | 456 kts | 64° |
| 2026-04-28 07:53 | -21.61608 | 167.32893 | 26937 ft | 458 kts | 64° |
| 2026-04-28 07:53 | -21.60479 | 167.36099 | 27221 ft | 461 kts | 64° |
| 2026-04-28 07:53 | -21.59357 | 167.39287 | 27502 ft | 463 kts | 64° |
| 2026-04-28 07:54 | -21.58212 | 167.42528 | 27780 ft | 465 kts | 64° |
| 2026-04-28 07:54 | -21.57062 | 167.45782 | 28063 ft | 467 kts | 64° |
| 2026-04-28 07:54 | -21.55900 | 167.49055 | 28348 ft | 469 kts | 63° |
| 2026-04-28 07:54 | -21.54719 | 167.52382 | 28638 ft | 472 kts | 64° |
| 2026-04-28 07:55 | -21.53550 | 167.55682 | 28924 ft | 474 kts | 63° |
| 2026-04-28 07:55 | -21.52375 | 167.58998 | 29204 ft | 476 kts | 63° |
| 2026-04-28 07:55 | -21.51193 | 167.62329 | 29474 ft | 479 kts | 63° |
| 2026-04-28 07:55 | -21.50015 | 167.65643 | 29742 ft | 481 kts | 63° |
| 2026-04-28 07:56 | -21.48820 | 167.68997 | 30031 ft | 483 kts | 63° |
| 2026-04-28 07:56 | -21.47623 | 167.72367 | 30375 ft | 482 kts | 63° |
| 2026-04-28 07:56 | -21.46431 | 167.75733 | 30706 ft | 482 kts | 63° |
| 2026-04-28 07:56 | -21.45241 | 167.79094 | 31028 ft | 482 kts | 63° |
| 2026-04-28 07:57 | -21.44049 | 167.82452 | 31342 ft | 482 kts | 63° |
| 2026-04-28 07:57 | -21.42849 | 167.85815 | 31663 ft | 482 kts | 63° |
| 2026-04-28 07:57 | -21.41649 | 167.89175 | 31987 ft | 482 kts | 63° |
| 2026-04-28 07:57 | -21.40448 | 167.92532 | 32315 ft | 482 kts | 63° |
| 2026-04-28 07:58 | -21.39243 | 167.95894 | 32637 ft | 482 kts | 63° |
| 2026-04-28 07:58 | -21.38041 | 167.99252 | 32963 ft | 483 kts | 63° |
| 2026-04-28 07:58 | -21.36841 | 168.02613 | 33291 ft | 483 kts | 63° |
| 2026-04-28 07:58 | -21.35639 | 168.05974 | 33602 ft | 482 kts | 63° |
| 2026-04-28 07:59 | -21.34437 | 168.09335 | 33960 ft | 482 kts | 63° |
| 2026-04-28 07:59 | -21.33232 | 168.12685 | 34248 ft | 481 kts | 63° |
| 2026-04-28 07:59 | -21.32027 | 168.16031 | 34529 ft | 481 kts | 62° |
| 2026-04-28 07:59 | -21.30826 | 168.19371 | 34823 ft | 480 kts | 62° |
| 2026-04-28 08:00 | -21.29626 | 168.22707 | 34996 ft | 480 kts | 62° |
| 2026-04-28 08:00 | -21.28417 | 168.26052 | 35038 ft | 481 kts | 62° |
| 2026-04-28 08:00 | -21.25980 | 168.32741 | 35034 ft | 482 kts | 62° |
| 2026-04-28 08:01 | -21.23550 | 168.39406 | 35034 ft | 479 kts | 62° |
| 2026-04-28 08:01 | -21.21129 | 168.46059 | 35043 ft | 478 kts | 62° |
| 2026-04-28 08:02 | -21.18707 | 168.52708 | 35036 ft | 478 kts | 62° |
| 2026-04-28 08:02 | -21.16294 | 168.59303 | 35036 ft | 479 kts | 62° |
| 2026-04-28 08:03 | -21.13863 | 168.65939 | 35040 ft | 479 kts | 62° |
| 2026-04-28 08:03 | -21.11433 | 168.72577 | 35039 ft | 479 kts | 62° |
| 2026-04-28 08:04 | -21.08992 | 168.79211 | 35049 ft | 478 kts | 62° |
| 2026-04-28 08:04 | -21.06557 | 168.85840 | 35053 ft | 478 kts | 62° |
| 2026-04-28 08:05 | -21.04128 | 168.92461 | 35054 ft | 478 kts | 62° |
| 2026-04-28 08:05 | -21.01694 | 168.99074 | 35054 ft | 478 kts | 62° |
| 2026-04-28 08:06 | -20.99246 | 169.05688 | 35054 ft | 477 kts | 62° |
| 2026-04-28 08:06 | -20.96805 | 169.12298 | 35055 ft | 477 kts | 62° |
| 2026-04-28 08:07 | -20.94358 | 169.18903 | 35056 ft | 477 kts | 62° |
| 2026-04-28 08:07 | -20.91918 | 169.25503 | 35056 ft | 477 kts | 62° |
| 2026-04-28 08:08 | -20.89475 | 169.32106 | 35056 ft | 477 kts | 62° |
| 2026-04-28 08:08 | -20.87025 | 169.38697 | 35055 ft | 477 kts | 62° |
| 2026-04-28 08:09 | -20.84570 | 169.45298 | 35049 ft | 477 kts | 62° |
| 2026-04-28 08:09 | -20.82117 | 169.51890 | 35049 ft | 478 kts | 62° |
| 2026-04-28 08:10 | -20.79657 | 169.58482 | 35039 ft | 478 kts | 62° |
| 2026-04-28 08:10 | -20.77191 | 169.65078 | 35045 ft | 478 kts | 62° |
| 2026-04-28 08:11 | -20.74735 | 169.71629 | 35051 ft | 478 kts | 62° |
| 2026-04-28 08:11 | -20.72263 | 169.78224 | 35054 ft | 478 kts | 62° |
| 2026-04-28 08:12 | -20.69798 | 169.84815 | 35045 ft | 478 kts | 63° |
| 2026-04-28 08:12 | -20.67327 | 169.91409 | 35048 ft | 479 kts | 63° |
| 2026-04-28 08:13 | -20.64844 | 169.98009 | 35050 ft | 479 kts | 63° |
| 2026-04-28 08:13 | -20.62351 | 170.04606 | 35053 ft | 479 kts | 63° |
| 2026-04-28 08:14 | -20.59864 | 170.11199 | 35052 ft | 479 kts | 63° |
| 2026-04-28 08:14 | -20.57792 | 170.16677 | 35047 ft | 479 kts | 63° |
| 2026-04-28 08:15 | -20.55300 | 170.23275 | 35053 ft | 479 kts | 63° |
| 2026-04-28 08:15 | -20.52807 | 170.29870 | 35041 ft | 479 kts | 63° |
| 2026-04-28 08:16 | -20.50308 | 170.36462 | 35053 ft | 479 kts | 63° |
| 2026-04-28 08:16 | -20.47814 | 170.43054 | 35067 ft | 479 kts | 63° |
| 2026-04-28 08:17 | -20.45316 | 170.49633 | 35058 ft | 479 kts | 63° |
| 2026-04-28 08:17 | -20.42809 | 170.56210 | 35050 ft | 479 kts | 63° |
| 2026-04-28 08:18 | -20.40302 | 170.62787 | 35057 ft | 479 kts | 63° |
| 2026-04-28 08:18 | -20.37794 | 170.69359 | 35058 ft | 479 kts | 63° |
| 2026-04-28 08:19 | -20.35282 | 170.75936 | 35058 ft | 479 kts | 63° |
| 2026-04-28 08:19 | -20.32774 | 170.82508 | 35060 ft | 479 kts | 63° |
| 2026-04-28 08:20 | -20.30263 | 170.89078 | 35062 ft | 479 kts | 63° |
| 2026-04-28 08:20 | -20.27743 | 170.95648 | 35056 ft | 479 kts | 63° |
| 2026-04-28 08:21 | -20.25235 | 171.02171 | 35058 ft | 479 kts | 63° |
| 2026-04-28 08:21 | -20.22710 | 171.08728 | 35053 ft | 479 kts | 63° |
| 2026-04-28 08:22 | -20.20195 | 171.15289 | 35062 ft | 478 kts | 63° |
| 2026-04-28 08:22 | -20.17682 | 171.21837 | 35064 ft | 478 kts | 63° |
| 2026-04-28 08:23 | -20.15149 | 171.28382 | 35061 ft | 477 kts | 63° |
| 2026-04-28 08:23 | -20.12618 | 171.34912 | 35063 ft | 477 kts | 63° |
| 2026-04-28 08:24 | -20.10091 | 171.41442 | 35062 ft | 477 kts | 63° |
| 2026-04-28 08:24 | -20.07561 | 171.47976 | 35063 ft | 477 kts | 63° |
| 2026-04-28 08:25 | -20.05035 | 171.54506 | 35065 ft | 478 kts | 63° |
| 2026-04-28 08:26 | -20.01237 | 171.64300 | 35063 ft | 477 kts | 63° |
| 2026-04-28 08:26 | -19.98699 | 171.70827 | 35060 ft | 478 kts | 63° |
| 2026-04-28 08:27 | -19.96159 | 171.77352 | 35059 ft | 478 kts | 63° |
| 2026-04-28 08:27 | -19.93612 | 171.83889 | 35054 ft | 478 kts | 63° |
| 2026-04-28 08:28 | -19.91082 | 171.90375 | 35058 ft | 478 kts | 63° |
| 2026-04-28 08:28 | -19.88523 | 171.96902 | 35060 ft | 478 kts | 63° |
| 2026-04-28 08:29 | -19.85967 | 172.03424 | 35059 ft | 478 kts | 63° |
| 2026-04-28 08:29 | -19.83416 | 172.09945 | 35060 ft | 478 kts | 63° |
| 2026-04-28 08:30 | -19.80858 | 172.16463 | 35064 ft | 478 kts | 63° |
| 2026-04-28 08:30 | -19.78292 | 172.22971 | 35066 ft | 478 kts | 63° |
| 2026-04-28 08:31 | -19.75727 | 172.29484 | 35065 ft | 478 kts | 63° |
| 2026-04-28 08:31 | -19.73168 | 172.36002 | 35065 ft | 478 kts | 63° |
| 2026-04-28 08:32 | -19.70604 | 172.42515 | 35059 ft | 478 kts | 63° |
| 2026-04-28 08:32 | -19.68050 | 172.48979 | 35063 ft | 478 kts | 63° |
| 2026-04-28 08:33 | -19.65477 | 172.55482 | 35067 ft | 478 kts | 63° |
| 2026-04-28 08:33 | -19.62913 | 172.61981 | 35058 ft | 478 kts | 64° |
| 2026-04-28 08:34 | -19.60345 | 172.68476 | 35061 ft | 478 kts | 64° |
| 2026-04-28 08:34 | -19.57768 | 172.74971 | 35063 ft | 478 kts | 63° |
| 2026-04-28 08:35 | -19.55187 | 172.81456 | 35063 ft | 477 kts | 63° |
| 2026-04-28 08:35 | -19.52601 | 172.87949 | 35065 ft | 477 kts | 63° |
| 2026-04-28 08:36 | -19.50016 | 172.94428 | 35062 ft | 477 kts | 63° |
| 2026-04-28 08:36 | -19.47426 | 173.00911 | 35061 ft | 477 kts | 63° |
| 2026-04-28 08:37 | -19.44843 | 173.07389 | 35061 ft | 477 kts | 63° |
| 2026-04-28 08:37 | -19.42253 | 173.13876 | 35063 ft | 477 kts | 63° |
| 2026-04-28 08:38 | -19.39680 | 173.20312 | 35057 ft | 477 kts | 64° |
| 2026-04-28 08:38 | -19.37089 | 173.26778 | 35061 ft | 477 kts | 64° |
| 2026-04-28 08:39 | -19.34496 | 173.33245 | 35065 ft | 477 kts | 64° |
| 2026-04-28 08:39 | -19.31906 | 173.39700 | 35060 ft | 476 kts | 64° |
| 2026-04-28 08:40 | -19.29313 | 173.46149 | 35065 ft | 476 kts | 64° |
| 2026-04-28 08:40 | -19.26720 | 173.52589 | 35063 ft | 475 kts | 64° |
| 2026-04-28 08:41 | -19.24127 | 173.59018 | 35065 ft | 474 kts | 64° |
| 2026-04-28 08:41 | -19.21542 | 173.65423 | 35069 ft | 473 kts | 64° |
| 2026-04-28 08:42 | -19.18960 | 173.71819 | 35068 ft | 472 kts | 64° |
| 2026-04-28 08:42 | -19.16377 | 173.78198 | 35066 ft | 472 kts | 64° |
| 2026-04-28 08:43 | -19.13794 | 173.84584 | 35062 ft | 471 kts | 64° |
| 2026-04-28 08:43 | -19.11210 | 173.90952 | 35061 ft | 471 kts | 64° |
| 2026-04-28 08:44 | -19.08640 | 173.97275 | 35059 ft | 471 kts | 64° |
| 2026-04-28 08:44 | -19.06061 | 174.03624 | 35061 ft | 470 kts | 64° |
| 2026-04-28 08:45 | -19.03478 | 174.09973 | 35062 ft | 469 kts | 64° |
| 2026-04-28 08:45 | -19.00898 | 174.16303 | 35056 ft | 469 kts | 64° |
| 2026-04-28 08:46 | -18.98319 | 174.22636 | 35058 ft | 469 kts | 64° |
| 2026-04-28 08:46 | -18.95736 | 174.28959 | 35054 ft | 469 kts | 64° |
| 2026-04-28 08:47 | -18.93151 | 174.35293 | 35047 ft | 470 kts | 64° |
| 2026-04-28 08:47 | -18.90560 | 174.41633 | 35045 ft | 471 kts | 64° |
| 2026-04-28 08:48 | -18.87954 | 174.47984 | 35041 ft | 471 kts | 64° |
| 2026-04-28 08:48 | -18.85354 | 174.54339 | 35041 ft | 472 kts | 64° |
| 2026-04-28 08:49 | -18.82749 | 174.60703 | 35042 ft | 472 kts | 64° |
| 2026-04-28 08:49 | -18.80130 | 174.67055 | 35049 ft | 472 kts | 64° |
| 2026-04-28 08:50 | -18.77513 | 174.73408 | 35057 ft | 472 kts | 64° |
| 2026-04-28 08:50 | -18.74905 | 174.79753 | 35060 ft | 471 kts | 64° |
| 2026-04-28 08:51 | -18.72292 | 174.86079 | 35058 ft | 470 kts | 64° |
| 2026-04-28 08:51 | -18.69675 | 174.92400 | 35045 ft | 470 kts | 64° |
| 2026-04-28 08:52 | -18.67071 | 174.98718 | 35052 ft | 470 kts | 64° |
| 2026-04-28 08:52 | -18.64462 | 175.05041 | 35049 ft | 470 kts | 64° |
| 2026-04-28 08:53 | -18.61844 | 175.11357 | 35050 ft | 470 kts | 64° |
| 2026-04-28 08:53 | -18.59227 | 175.17671 | 35053 ft | 470 kts | 64° |
| 2026-04-28 08:54 | -18.56612 | 175.23983 | 35051 ft | 470 kts | 64° |
| 2026-04-28 08:54 | -18.53997 | 175.30293 | 35050 ft | 470 kts | 64° |
| 2026-04-28 08:55 | -18.51376 | 175.36592 | 35050 ft | 469 kts | 64° |
| 2026-04-28 08:55 | -18.48746 | 175.42890 | 35048 ft | 469 kts | 64° |
| 2026-04-28 08:56 | -18.46121 | 175.49190 | 35044 ft | 470 kts | 64° |
| 2026-04-28 08:56 | -18.43499 | 175.55487 | 35048 ft | 470 kts | 64° |
| 2026-04-28 08:57 | -18.40868 | 175.61786 | 35052 ft | 470 kts | 64° |
| 2026-04-28 08:57 | -18.38234 | 175.68077 | 35048 ft | 470 kts | 64° |
| 2026-04-28 08:58 | -18.35605 | 175.74367 | 35042 ft | 469 kts | 64° |
| 2026-04-28 08:58 | -18.32970 | 175.80655 | 35041 ft | 469 kts | 64° |
| 2026-04-28 08:59 | -18.30340 | 175.86940 | 35043 ft | 469 kts | 64° |
| 2026-04-28 08:59 | -18.28151 | 175.92151 | 35050 ft | 468 kts | 64° |
| 2026-04-28 09:00 | -18.25513 | 175.98420 | 35043 ft | 468 kts | 64° |
| 2026-04-28 09:00 | -18.22884 | 176.04683 | 35044 ft | 468 kts | 64° |
| 2026-04-28 09:01 | -18.20251 | 176.10941 | 35048 ft | 468 kts | 64° |
| 2026-04-28 09:01 | -18.17610 | 176.17199 | 35043 ft | 468 kts | 64° |
| 2026-04-28 09:02 | -18.14962 | 176.23450 | 35047 ft | 468 kts | 64° |
| 2026-04-28 09:02 | -18.12321 | 176.29690 | 35044 ft | 467 kts | 64° |
| 2026-04-28 09:03 | -18.09692 | 176.35929 | 35037 ft | 467 kts | 64° |
| 2026-04-28 09:03 | -18.07062 | 176.42168 | 35045 ft | 467 kts | 64° |
| 2026-04-28 09:04 | -18.04422 | 176.48400 | 35033 ft | 466 kts | 64° |
| 2026-04-28 09:04 | -18.01778 | 176.54626 | 35033 ft | 466 kts | 64° |
| 2026-04-28 09:05 | -17.99138 | 176.60845 | 35033 ft | 466 kts | 64° |
| 2026-04-28 09:05 | -17.96497 | 176.67069 | 35039 ft | 466 kts | 64° |
| 2026-04-28 09:06 | -17.93856 | 176.73285 | 35034 ft | 466 kts | 64° |
| 2026-04-28 09:06 | -17.91212 | 176.79503 | 35037 ft | 466 kts | 64° |
| 2026-04-28 09:07 | -17.88558 | 176.85716 | 35033 ft | 466 kts | 64° |
| 2026-04-28 09:07 | -17.85921 | 176.91885 | 35034 ft | 466 kts | 64° |
| 2026-04-28 09:08 | -17.83267 | 176.98095 | 35036 ft | 466 kts | 64° |
| 2026-04-28 09:08 | -17.80609 | 177.04296 | 35036 ft | 465 kts | 64° |
| 2026-04-28 09:09 | -17.77952 | 177.10485 | 35023 ft | 465 kts | 64° |
| 2026-04-28 09:09 | -17.75303 | 177.16679 | 35025 ft | 465 kts | 64° |
| 2026-04-28 09:10 | -17.72659 | 177.22871 | 35043 ft | 465 kts | 64° |
| 2026-04-28 09:10 | -17.70009 | 177.29049 | 35044 ft | 464 kts | 64° |
| 2026-04-28 09:11 | -17.67349 | 177.35213 | 35051 ft | 464 kts | 64° |
| 2026-04-28 09:11 | -17.64503 | 177.41280 | 35051 ft | 461 kts | 57° |
| 2026-04-28 09:12 | -17.61206 | 177.47010 | 35046 ft | 461 kts | 57° |
| 2026-04-28 09:12 | -17.57868 | 177.52748 | 35037 ft | 461 kts | 56° |
| 2026-04-28 09:13 | -17.54529 | 177.58492 | 35039 ft | 461 kts | 57° |
| 2026-04-28 09:13 | -17.51205 | 177.64236 | 35037 ft | 461 kts | 57° |
| 2026-04-28 09:14 | -17.47880 | 177.69984 | 35039 ft | 461 kts | 57° |
| 2026-04-28 09:14 | -17.44554 | 177.75723 | 35039 ft | 461 kts | 56° |
| 2026-04-28 09:15 | -17.41218 | 177.81466 | 35040 ft | 461 kts | 56° |
| 2026-04-28 09:15 | -17.37878 | 177.87197 | 35039 ft | 461 kts | 57° |
| 2026-04-28 09:16 | -17.34549 | 177.92921 | 35047 ft | 460 kts | 57° |
| 2026-04-28 09:16 | -17.31225 | 177.98641 | 35037 ft | 460 kts | 57° |
| 2026-04-28 09:17 | -17.27902 | 178.04347 | 35040 ft | 459 kts | 57° |
| 2026-04-28 09:17 | -17.24572 | 178.10047 | 35037 ft | 459 kts | 57° |
| 2026-04-28 09:18 | -17.21252 | 178.15731 | 35044 ft | 457 kts | 57° |
| 2026-04-28 09:18 | -17.17937 | 178.21410 | 35035 ft | 456 kts | 57° |
| 2026-04-28 09:19 | -17.14630 | 178.27064 | 35034 ft | 456 kts | 57° |
| 2026-04-28 09:19 | -17.11345 | 178.32678 | 35032 ft | 455 kts | 57° |
| 2026-04-28 09:20 | -17.08034 | 178.38327 | 35030 ft | 455 kts | 56° |
| 2026-04-28 09:20 | -17.04727 | 178.43961 | 35028 ft | 455 kts | 57° |
| 2026-04-28 09:21 | -17.01426 | 178.49596 | 35037 ft | 454 kts | 56° |
| 2026-04-28 09:21 | -16.98136 | 178.55210 | 35040 ft | 452 kts | 56° |
| 2026-04-28 09:22 | -16.94848 | 178.60803 | 35039 ft | 451 kts | 56° |
| 2026-04-28 09:22 | -16.91566 | 178.66377 | 35039 ft | 450 kts | 56° |
| 2026-04-28 09:23 | -16.88287 | 178.71945 | 35038 ft | 450 kts | 56° |
| 2026-04-28 09:23 | -16.85009 | 178.77513 | 35036 ft | 450 kts | 56° |
| 2026-04-28 09:24 | -16.81731 | 178.83076 | 35039 ft | 450 kts | 56° |
| 2026-04-28 09:24 | -16.78446 | 178.88630 | 35037 ft | 449 kts | 55° |
| 2026-04-28 09:25 | -16.74936 | 178.94012 | 35033 ft | 448 kts | 52° |
| 2026-04-28 09:25 | -16.71208 | 178.99229 | 35033 ft | 448 kts | 51° |
| 2026-04-28 09:26 | -16.67472 | 179.04432 | 35035 ft | 448 kts | 51° |
| 2026-04-28 09:26 | -16.63797 | 179.09682 | 35037 ft | 448 kts | 52° |
| 2026-04-28 09:27 | -16.58328 | 179.17581 | 35038 ft | 447 kts | 52° |
| 2026-04-28 09:27 | -16.54677 | 179.22826 | 35037 ft | 447 kts | 52° |
| 2026-04-28 09:28 | -16.51012 | 179.28059 | 35033 ft | 447 kts | 52° |
| 2026-04-28 09:28 | -16.47374 | 179.33264 | 35032 ft | 447 kts | 52° |
| 2026-04-28 09:29 | -16.43710 | 179.38499 | 35032 ft | 447 kts | 52° |
| 2026-04-28 09:29 | -16.40044 | 179.43741 | 35033 ft | 448 kts | 52° |
| 2026-04-28 09:30 | -16.36376 | 179.48976 | 35033 ft | 448 kts | 52° |
| 2026-04-28 09:30 | -16.32707 | 179.54215 | 35023 ft | 447 kts | 52° |
| 2026-04-28 09:31 | -16.29036 | 179.59448 | 35030 ft | 447 kts | 52° |
| 2026-04-28 09:31 | -16.25376 | 179.64665 | 35030 ft | 446 kts | 52° |
| 2026-04-28 09:32 | -16.21710 | 179.69884 | 35030 ft | 446 kts | 52° |
| 2026-04-28 09:32 | -16.18051 | 179.75091 | 35026 ft | 446 kts | 52° |
| 2026-04-28 09:33 | -16.14416 | 179.80265 | 35022 ft | 446 kts | 52° |
| 2026-04-28 09:33 | -16.10730 | 179.85496 | 35021 ft | 446 kts | 52° |
| 2026-04-28 09:34 | -16.07092 | 179.90663 | 35020 ft | 446 kts | 52° |
| 2026-04-28 09:34 | -16.03421 | 179.95857 | 35017 ft | 445 kts | 52° |
| 2026-04-28 09:35 | -15.99756 | -179.98954 | 35020 ft | 445 kts | 52° |
| 2026-04-28 09:35 | -15.96094 | -179.93765 | 35021 ft | 445 kts | 52° |
| 2026-04-28 09:36 | -15.92439 | -179.88587 | 35024 ft | 444 kts | 52° |
| 2026-04-28 09:36 | -15.88790 | -179.83423 | 35023 ft | 443 kts | 52° |
| 2026-04-28 09:37 | -15.85141 | -179.78261 | 35017 ft | 443 kts | 52° |
| 2026-04-28 09:37 | -15.81492 | -179.73111 | 35017 ft | 443 kts | 52° |
| 2026-04-28 09:38 | -15.77836 | -179.67955 | 35017 ft | 443 kts | 52° |
| 2026-04-28 09:38 | -15.74195 | -179.62805 | 35015 ft | 443 kts | 52° |
| 2026-04-28 09:39 | -15.70547 | -179.57656 | 35012 ft | 443 kts | 52° |
| 2026-04-28 09:39 | -15.66891 | -179.52514 | 35015 ft | 442 kts | 52° |
| 2026-04-28 09:40 | -15.63237 | -179.47373 | 35011 ft | 442 kts | 52° |
| 2026-04-28 09:40 | -15.59590 | -179.42242 | 35013 ft | 442 kts | 52° |
| 2026-04-28 09:41 | -15.55946 | -179.37114 | 35016 ft | 442 kts | 52° |
| 2026-04-28 09:41 | -15.52297 | -179.31982 | 35017 ft | 441 kts | 52° |
| 2026-04-28 09:42 | -15.48651 | -179.26865 | 35016 ft | 441 kts | 52° |
| 2026-04-28 09:42 | -15.45029 | -179.21779 | 35014 ft | 441 kts | 52° |
| 2026-04-28 09:43 | -15.41362 | -179.16624 | 35008 ft | 442 kts | 52° |
| 2026-04-28 09:43 | -15.37729 | -179.11536 | 35007 ft | 442 kts | 52° |
| 2026-04-28 09:44 | -15.34663 | -179.07250 | 35006 ft | 442 kts | 52° |
| 2026-04-28 09:44 | -15.30407 | -179.01297 | 35007 ft | 442 kts | 52° |
| 2026-04-28 09:45 | -15.27340 | -178.97009 | 35004 ft | 442 kts | 52° |
| 2026-04-28 09:45 | -15.23677 | -178.91888 | 35006 ft | 442 kts | 52° |
| 2026-04-28 09:46 | -15.20023 | -178.86768 | 35003 ft | 442 kts | 52° |
| 2026-04-28 09:46 | -15.16361 | -178.81654 | 35002 ft | 442 kts | 53° |
| 2026-04-28 09:47 | -15.12691 | -178.76533 | 35003 ft | 443 kts | 53° |
| 2026-04-28 09:47 | -15.09019 | -178.71407 | 35002 ft | 443 kts | 52° |
| 2026-04-28 09:48 | -15.05371 | -178.66319 | 35004 ft | 444 kts | 52° |
| 2026-04-28 09:48 | -15.01667 | -178.61159 | 35005 ft | 444 kts | 52° |
| 2026-04-28 09:49 | -14.97987 | -178.56093 | 35004 ft | 443 kts | 52° |
| 2026-04-28 09:49 | -14.94182 | -178.51069 | 35003 ft | 443 kts | 51° |
| 2026-04-28 09:50 | -14.90352 | -178.46066 | 35002 ft | 443 kts | 51° |
| 2026-04-28 09:50 | -14.86542 | -178.41049 | 35004 ft | 443 kts | 52° |
| 2026-04-28 09:51 | -14.82747 | -178.36023 | 35005 ft | 443 kts | 52° |
| 2026-04-28 09:51 | -14.78953 | -178.31005 | 35001 ft | 443 kts | 52° |
| 2026-04-28 09:52 | -14.75148 | -178.25982 | 35002 ft | 443 kts | 52° |
| 2026-04-28 09:52 | -14.71345 | -178.20972 | 35004 ft | 443 kts | 52° |
| 2026-04-28 09:53 | -14.67540 | -178.15965 | 35005 ft | 443 kts | 51° |
| 2026-04-28 09:53 | -14.63766 | -178.10983 | 35001 ft | 443 kts | 52° |
| 2026-04-28 09:54 | -14.59939 | -178.05942 | 35000 ft | 443 kts | 52° |
| 2026-04-28 09:54 | -14.56154 | -178.00965 | 35000 ft | 443 kts | 52° |
| 2026-04-28 09:55 | -14.52342 | -177.95947 | 35001 ft | 444 kts | 52° |
| 2026-04-28 09:55 | -14.48525 | -177.90938 | 34997 ft | 444 kts | 52° |
| 2026-04-28 09:56 | -14.44702 | -177.85932 | 34993 ft | 444 kts | 52° |
| 2026-04-28 09:56 | -14.40878 | -177.80911 | 34981 ft | 445 kts | 52° |
| 2026-04-28 09:57 | -14.37048 | -177.75876 | 34978 ft | 446 kts | 52° |
| 2026-04-28 09:57 | -14.33205 | -177.70845 | 34978 ft | 447 kts | 52° |
| 2026-04-28 09:58 | -14.29354 | -177.65803 | 34981 ft | 448 kts | 52° |
| 2026-04-28 09:58 | -14.25498 | -177.60760 | 34982 ft | 448 kts | 52° |
| 2026-04-28 09:59 | -14.21636 | -177.55709 | 34985 ft | 448 kts | 52° |
| 2026-04-28 09:59 | -14.17778 | -177.50652 | 34987 ft | 449 kts | 52° |
| 2026-04-28 10:00 | -14.13913 | -177.45609 | 34992 ft | 449 kts | 52° |
| 2026-04-28 10:00 | -14.10045 | -177.40564 | 34996 ft | 448 kts | 52° |
| 2026-04-28 10:01 | -14.06187 | -177.35520 | 34997 ft | 448 kts | 52° |
| 2026-04-28 10:01 | -14.02347 | -177.30503 | 34994 ft | 448 kts | 52° |
| 2026-04-28 10:02 | -13.98476 | -177.25469 | 34992 ft | 449 kts | 52° |
| 2026-04-28 10:02 | -13.94596 | -177.20432 | 34992 ft | 449 kts | 52° |
| 2026-04-28 10:03 | -13.90722 | -177.15382 | 34992 ft | 449 kts | 53° |
| 2026-04-28 10:03 | -13.86854 | -177.10335 | 34991 ft | 449 kts | 52° |
| 2026-04-28 10:04 | -13.82980 | -177.05300 | 34990 ft | 449 kts | 52° |
| 2026-04-28 10:04 | -13.79100 | -177.00267 | 34992 ft | 449 kts | 52° |
| 2026-04-28 10:05 | -13.75222 | -176.95244 | 34990 ft | 448 kts | 52° |
| 2026-04-28 10:05 | -13.71346 | -176.90215 | 34988 ft | 448 kts | 53° |
| 2026-04-28 10:06 | -13.67474 | -176.85183 | 34989 ft | 448 kts | 53° |
| 2026-04-28 10:06 | -13.63600 | -176.80159 | 34989 ft | 449 kts | 52° |
| 2026-04-28 10:07 | -13.59715 | -176.75137 | 34985 ft | 449 kts | 53° |
| 2026-04-28 10:07 | -13.55858 | -176.70146 | 34984 ft | 449 kts | 53° |
| 2026-04-28 10:08 | -13.51981 | -176.65119 | 34983 ft | 449 kts | 52° |
| 2026-04-28 10:08 | -13.48097 | -176.60104 | 34983 ft | 449 kts | 52° |
| 2026-04-28 10:09 | -13.44214 | -176.55082 | 34988 ft | 449 kts | 53° |
| 2026-04-28 10:09 | -13.40334 | -176.50063 | 34985 ft | 449 kts | 53° |
| 2026-04-28 10:10 | -13.36447 | -176.45042 | 34975 ft | 447 kts | 53° |
| 2026-04-28 10:10 | -13.34536 | -176.42580 | 34964 ft | 434 kts | 53° |
| 2026-04-28 10:10 | -13.32480 | -176.40387 | 34967 ft | 421 kts | 36° |
| 2026-04-28 10:11 | -13.29902 | -176.39092 | 34967 ft | 409 kts | 17° |
| 2026-04-28 10:11 | -13.27129 | -176.38622 | 34966 ft | 402 kts | 5° |
| 2026-04-28 10:11 | -13.21766 | -176.37625 | 34968 ft | 389 kts | 34° |
| 2026-04-28 10:12 | -13.19798 | -176.35789 | 34965 ft | 382 kts | 59° |
| 2026-04-28 10:12 | -13.18772 | -176.33324 | 34966 ft | 376 kts | 84° |
| 2026-04-28 10:12 | -13.18857 | -176.30676 | 34965 ft | 374 kts | 107° |
| 2026-04-28 10:12 | -13.19681 | -176.28136 | 34967 ft | 376 kts | 110° |
| 2026-04-28 10:13 | -13.21415 | -176.23067 | 34968 ft | 377 kts | 110° |
| 2026-04-28 10:13 | -13.23002 | -176.17934 | 34966 ft | 377 kts | 95° |
| 2026-04-28 10:14 | -13.22736 | -176.15277 | 34964 ft | 379 kts | 70° |
| 2026-04-28 10:14 | -13.21395 | -176.12955 | 34965 ft | 384 kts | 46° |
| 2026-04-28 10:14 | -13.19200 | -176.11388 | 34965 ft | 390 kts | 22° |
| 2026-04-28 10:14 | -13.16572 | -176.10871 | 34965 ft | 394 kts | 357° |
| 2026-04-28 10:15 | -13.13910 | -176.11495 | 34967 ft | 396 kts | 333° |
| 2026-04-28 10:15 | -13.11712 | -176.13172 | 34968 ft | 396 kts | 308° |
| 2026-04-28 10:15 | -13.10261 | -176.15564 | 34970 ft | 397 kts | 296° |
| 2026-04-28 10:15 | -13.08995 | -176.18097 | 34972 ft | 401 kts | 296° |
| 2026-04-28 10:16 | -13.06445 | -176.23204 | 34966 ft | 404 kts | 296° |
| 2026-04-28 10:16 | -13.05489 | -176.25892 | 34963 ft | 401 kts | 275° |
| 2026-04-28 10:16 | -13.05600 | -176.28705 | 34964 ft | 395 kts | 251° |
| 2026-04-28 10:17 | -13.06793 | -176.31197 | 34965 ft | 388 kts | 226° |
| 2026-04-28 10:17 | -13.08841 | -176.32936 | 34966 ft | 382 kts | 202° |
| 2026-04-28 10:17 | -13.11367 | -176.33632 | 34965 ft | 377 kts | 178° |
| 2026-04-28 10:17 | -13.13924 | -176.33172 | 34965 ft | 375 kts | 153° |
| 2026-04-28 10:18 | -13.16029 | -176.31656 | 34965 ft | 372 kts | 129° |
| 2026-04-28 10:18 | -13.17319 | -176.29371 | 34967 ft | 374 kts | 108° |
| 2026-04-28 10:18 | -13.18550 | -176.24195 | 34963 ft | 376 kts | 86° |
| 2026-04-28 10:19 | -13.17891 | -176.21610 | 34966 ft | 380 kts | 62° |
| 2026-04-28 10:19 | -13.16213 | -176.19519 | 34964 ft | 384 kts | 37° |
| 2026-04-28 10:19 | -13.13812 | -176.18316 | 34969 ft | 390 kts | 13° |
| 2026-04-28 10:19 | -13.11109 | -176.18222 | 34966 ft | 393 kts | 348° |
| 2026-04-28 10:20 | -13.08582 | -176.19270 | 34962 ft | 395 kts | 323° |
| 2026-04-28 10:20 | -13.06680 | -176.21280 | 34965 ft | 396 kts | 299° |
| 2026-04-28 10:20 | -13.05731 | -176.23902 | 34965 ft | 395 kts | 274° |
| 2026-04-28 10:20 | -13.05895 | -176.26682 | 34967 ft | 392 kts | 251° |
| 2026-04-28 10:21 | -13.07645 | -176.32020 | 34966 ft | 397 kts | 249° |
| 2026-04-28 10:21 | -13.09437 | -176.37375 | 34965 ft | 396 kts | 249° |
| 2026-04-28 10:22 | -13.11232 | -176.42726 | 34967 ft | 397 kts | 249° |
| 2026-04-28 10:22 | -13.13053 | -176.48074 | 34965 ft | 397 kts | 249° |
| 2026-04-28 10:23 | -13.14889 | -176.53412 | 34965 ft | 397 kts | 249° |
| 2026-04-28 10:23 | -13.16713 | -176.58757 | 34964 ft | 397 kts | 249° |
| 2026-04-28 10:24 | -13.18556 | -176.64065 | 34964 ft | 397 kts | 249° |
| 2026-04-28 10:24 | -13.20413 | -176.69451 | 34965 ft | 399 kts | 249° |
| 2026-04-28 10:25 | -13.22262 | -176.74817 | 34966 ft | 397 kts | 249° |
| 2026-04-28 10:25 | -13.24103 | -176.80127 | 34967 ft | 398 kts | 249° |
| 2026-04-28 10:26 | -13.25939 | -176.85494 | 34965 ft | 398 kts | 249° |
| 2026-04-28 10:26 | -13.27792 | -176.90847 | 34965 ft | 398 kts | 249° |
| 2026-04-28 10:27 | -13.29626 | -176.96197 | 34969 ft | 397 kts | 249° |
| 2026-04-28 10:27 | -13.31484 | -177.01526 | 34966 ft | 396 kts | 249° |
| 2026-04-28 10:28 | -13.33342 | -177.06854 | 34965 ft | 396 kts | 249° |
| 2026-04-28 10:29 | -13.36129 | -177.14848 | 34966 ft | 395 kts | 249° |
| 2026-04-28 10:29 | -13.37982 | -177.20176 | 34968 ft | 397 kts | 249° |
| 2026-04-28 10:30 | -13.39832 | -177.25515 | 34971 ft | 396 kts | 249° |
| 2026-04-28 10:30 | -13.41379 | -177.29942 | 34972 ft | 396 kts | 249° |
| 2026-04-28 10:31 | -13.43230 | -177.35285 | 34969 ft | 397 kts | 249° |
| 2026-04-28 10:31 | -13.45108 | -177.40614 | 34967 ft | 396 kts | 249° |
| 2026-04-28 10:32 | -13.46983 | -177.45942 | 34967 ft | 397 kts | 249° |
| 2026-04-28 10:32 | -13.48857 | -177.51280 | 34972 ft | 396 kts | 249° |
| 2026-04-28 10:33 | -13.50747 | -177.56582 | 34971 ft | 395 kts | 249° |
| 2026-04-28 10:33 | -13.52630 | -177.61898 | 34971 ft | 396 kts | 249° |
| 2026-04-28 10:34 | -13.54520 | -177.67210 | 34967 ft | 395 kts | 249° |
| 2026-04-28 10:34 | -13.56407 | -177.72524 | 34967 ft | 397 kts | 249° |
| 2026-04-28 10:35 | -13.58315 | -177.77832 | 34969 ft | 395 kts | 249° |
| 2026-04-28 10:35 | -13.60230 | -177.83131 | 34967 ft | 396 kts | 249° |
| 2026-04-28 10:36 | -13.62140 | -177.88439 | 34969 ft | 396 kts | 249° |
| 2026-04-28 10:36 | -13.64055 | -177.93740 | 34969 ft | 395 kts | 249° |
| 2026-04-28 10:37 | -13.65964 | -177.99045 | 34968 ft | 397 kts | 249° |
| 2026-04-28 10:37 | -13.67867 | -178.04327 | 34968 ft | 396 kts | 249° |
| 2026-04-28 10:38 | -13.69781 | -178.09637 | 34969 ft | 396 kts | 249° |
| 2026-04-28 10:38 | -13.71721 | -178.14946 | 34969 ft | 396 kts | 249° |
| 2026-04-28 10:39 | -13.73666 | -178.20240 | 34967 ft | 396 kts | 249° |
| 2026-04-28 10:39 | -13.75613 | -178.25541 | 34970 ft | 397 kts | 249° |
| 2026-04-28 10:40 | -13.77559 | -178.30841 | 34967 ft | 395 kts | 249° |
| 2026-04-28 10:40 | -13.79503 | -178.36134 | 34973 ft | 396 kts | 249° |
| 2026-04-28 10:41 | -13.81450 | -178.41441 | 34971 ft | 396 kts | 249° |
| 2026-04-28 10:41 | -13.83392 | -178.46731 | 34971 ft | 395 kts | 249° |
| 2026-04-28 10:42 | -13.85345 | -178.51994 | 34973 ft | 397 kts | 249° |
| 2026-04-28 10:42 | -13.87346 | -178.57304 | 34970 ft | 395 kts | 249° |
| 2026-04-28 10:43 | -13.89338 | -178.62571 | 34971 ft | 395 kts | 249° |
| 2026-04-28 10:43 | -13.91335 | -178.67839 | 34970 ft | 395 kts | 249° |
| 2026-04-28 10:44 | -13.93322 | -178.73105 | 34971 ft | 395 kts | 249° |
| 2026-04-28 10:44 | -13.95314 | -178.78364 | 34971 ft | 394 kts | 249° |
| 2026-04-28 10:45 | -13.97298 | -178.83616 | 34973 ft | 393 kts | 249° |
| 2026-04-28 10:45 | -13.99273 | -178.88822 | 34974 ft | 394 kts | 249° |
| 2026-04-28 10:46 | -14.01291 | -178.94073 | 34971 ft | 394 kts | 249° |
| 2026-04-28 10:46 | -14.03297 | -178.99327 | 34972 ft | 394 kts | 249° |
| 2026-04-28 10:47 | -14.05664 | -179.04399 | 34972 ft | 395 kts | 230° |
| 2026-04-28 10:47 | -14.07655 | -179.06325 | 34970 ft | 394 kts | 212° |
| 2026-04-28 10:47 | -14.10112 | -179.07539 | 34972 ft | 392 kts | 194° |
| 2026-04-28 10:47 | -14.12797 | -179.07919 | 34970 ft | 390 kts | 176° |
| 2026-04-28 10:48 | -14.15455 | -179.07458 | 34970 ft | 388 kts | 159° |
| 2026-04-28 10:48 | -14.20497 | -179.05428 | 34970 ft | 388 kts | 146° |
| 2026-04-28 10:48 | -14.22548 | -179.03653 | 34975 ft | 386 kts | 127° |
| 2026-04-28 10:49 | -14.23972 | -179.01332 | 34976 ft | 384 kts | 110° |
| 2026-04-28 10:49 | -14.24651 | -178.98688 | 34977 ft | 382 kts | 93° |
| 2026-04-28 10:49 | -14.24535 | -178.95970 | 34977 ft | 379 kts | 75° |
| 2026-04-28 10:50 | -14.22821 | -178.90842 | 34973 ft | 380 kts | 69° |
| 2026-04-28 10:50 | -14.21000 | -178.85725 | 34970 ft | 380 kts | 69° |
| 2026-04-28 10:51 | -14.19191 | -178.80609 | 34971 ft | 380 kts | 69° |
| 2026-04-28 10:51 | -14.17388 | -178.75493 | 34971 ft | 380 kts | 69° |
| 2026-04-28 10:52 | -14.15588 | -178.70418 | 34971 ft | 380 kts | 69° |
| 2026-04-28 10:52 | -14.13760 | -178.65279 | 34970 ft | 379 kts | 69° |
| 2026-04-28 10:53 | -14.11946 | -178.60174 | 34968 ft | 380 kts | 69° |
| 2026-04-28 10:53 | -14.10127 | -178.55068 | 34967 ft | 380 kts | 69° |
| 2026-04-28 10:54 | -14.08321 | -178.49995 | 34970 ft | 379 kts | 69° |
| 2026-04-28 10:54 | -14.06487 | -178.44860 | 34971 ft | 380 kts | 69° |
| 2026-04-28 10:55 | -14.04664 | -178.39749 | 34971 ft | 380 kts | 70° |
| 2026-04-28 10:55 | -14.02856 | -178.34676 | 34963 ft | 381 kts | 70° |
| 2026-04-28 10:55 | -14.01941 | -178.32109 | 34745 ft | 379 kts | 70° |
| 2026-04-28 10:56 | -14.01035 | -178.29571 | 34652 ft | 377 kts | 69° |
| 2026-04-28 10:56 | -13.99237 | -178.24525 | 34502 ft | 374 kts | 69° |
| 2026-04-28 10:57 | -13.97440 | -178.19511 | 34353 ft | 373 kts | 69° |
| 2026-04-28 10:57 | -13.95647 | -178.14523 | 34164 ft | 371 kts | 69° |
| 2026-04-28 10:57 | -13.94750 | -178.12024 | 33778 ft | 372 kts | 69° |
| 2026-04-28 10:58 | -13.93856 | -178.09526 | 33359 ft | 372 kts | 69° |
| 2026-04-28 10:58 | -13.92960 | -178.07029 | 32955 ft | 372 kts | 70° |
| 2026-04-28 10:58 | -13.92067 | -178.04531 | 32550 ft | 372 kts | 69° |
| 2026-04-28 10:58 | -13.91171 | -178.02029 | 32149 ft | 372 kts | 69° |
| 2026-04-28 10:59 | -13.90273 | -177.99530 | 31748 ft | 373 kts | 69° |
| 2026-04-28 10:59 | -13.89376 | -177.97029 | 31356 ft | 373 kts | 69° |
| 2026-04-28 10:59 | -13.88479 | -177.94522 | 30963 ft | 373 kts | 69° |
| 2026-04-28 10:59 | -13.87580 | -177.92013 | 30567 ft | 373 kts | 69° |
| 2026-04-28 11:00 | -13.86683 | -177.89508 | 30190 ft | 373 kts | 69° |
| 2026-04-28 11:00 | -13.85783 | -177.87004 | 29772 ft | 373 kts | 69° |
| 2026-04-28 11:00 | -13.84883 | -177.84507 | 29395 ft | 371 kts | 69° |
| 2026-04-28 11:00 | -13.83989 | -177.82021 | 29030 ft | 369 kts | 70° |
| 2026-04-28 11:01 | -13.83114 | -177.79589 | 28669 ft | 366 kts | 70° |
| 2026-04-28 11:01 | -13.82220 | -177.77108 | 28308 ft | 364 kts | 70° |
| 2026-04-28 11:01 | -13.81354 | -177.74707 | 27964 ft | 361 kts | 70° |
| 2026-04-28 11:01 | -13.80485 | -177.72297 | 27610 ft | 358 kts | 70° |
| 2026-04-28 11:02 | -13.79620 | -177.69901 | 27250 ft | 356 kts | 70° |
| 2026-04-28 11:02 | -13.78762 | -177.67526 | 26896 ft | 353 kts | 70° |
| 2026-04-28 11:02 | -13.77912 | -177.65166 | 26522 ft | 351 kts | 70° |
| 2026-04-28 11:02 | -13.77065 | -177.62820 | 26148 ft | 349 kts | 70° |
| 2026-04-28 11:03 | -13.76220 | -177.60487 | 25786 ft | 347 kts | 70° |
| 2026-04-28 11:03 | -13.75379 | -177.58160 | 25401 ft | 346 kts | 70° |
| 2026-04-28 11:03 | -13.74547 | -177.55839 | 25024 ft | 346 kts | 70° |
| 2026-04-28 11:03 | -13.73714 | -177.53520 | 24646 ft | 345 kts | 70° |
| 2026-04-28 11:04 | -13.72881 | -177.51210 | 24246 ft | 345 kts | 70° |
| 2026-04-28 11:04 | -13.72045 | -177.48897 | 23854 ft | 345 kts | 70° |
| 2026-04-28 11:04 | -13.71208 | -177.46588 | 23446 ft | 345 kts | 70° |
| 2026-04-28 11:04 | -13.70369 | -177.44283 | 23012 ft | 344 kts | 70° |
| 2026-04-28 11:05 | -13.69533 | -177.41987 | 22623 ft | 341 kts | 70° |
| 2026-04-28 11:05 | -13.68703 | -177.39707 | 22220 ft | 340 kts | 70° |
| 2026-04-28 11:05 | -13.67880 | -177.37441 | 21836 ft | 338 kts | 70° |
| 2026-04-28 11:05 | -13.67062 | -177.35180 | 21438 ft | 336 kts | 70° |
| 2026-04-28 11:06 | -13.66248 | -177.32934 | 21052 ft | 335 kts | 70° |
| 2026-04-28 11:06 | -13.65440 | -177.30697 | 20662 ft | 333 kts | 70° |
| 2026-04-28 11:06 | -13.64635 | -177.28468 | 20275 ft | 332 kts | 70° |
| 2026-04-28 11:06 | -13.63828 | -177.26248 | 19889 ft | 331 kts | 70° |
| 2026-04-28 11:07 | -13.63021 | -177.24035 | 19502 ft | 330 kts | 70° |
| 2026-04-28 11:07 | -13.62217 | -177.21824 | 19115 ft | 330 kts | 70° |
| 2026-04-28 11:07 | -13.61418 | -177.19617 | 18728 ft | 329 kts | 70° |
| 2026-04-28 11:07 | -13.60622 | -177.17417 | 18341 ft | 328 kts | 70° |
| 2026-04-28 11:08 | -13.59835 | -177.15247 | 17919 ft | 328 kts | 70° |
| 2026-04-28 11:08 | -13.59040 | -177.13063 | 17521 ft | 325 kts | 70° |
| 2026-04-28 11:08 | -13.58242 | -177.10866 | 17139 ft | 323 kts | 70° |
| 2026-04-28 11:08 | -13.57470 | -177.08739 | 16769 ft | 320 kts | 70° |
| 2026-04-28 11:09 | -13.56696 | -177.06601 | 16396 ft | 318 kts | 70° |
| 2026-04-28 11:09 | -13.55925 | -177.04477 | 16023 ft | 316 kts | 70° |
| 2026-04-28 11:09 | -13.55158 | -177.02364 | 15652 ft | 315 kts | 70° |
| 2026-04-28 11:09 | -13.54393 | -177.00263 | 15285 ft | 313 kts | 70° |
| 2026-04-28 11:10 | -13.53628 | -176.98169 | 14918 ft | 312 kts | 70° |
| 2026-04-28 11:10 | -13.52869 | -176.96089 | 14553 ft | 310 kts | 70° |
| 2026-04-28 11:10 | -13.52113 | -176.94012 | 14194 ft | 309 kts | 70° |
| 2026-04-28 11:10 | -13.51361 | -176.91945 | 13826 ft | 309 kts | 70° |
| 2026-04-28 11:11 | -13.50609 | -176.89885 | 13428 ft | 308 kts | 70° |
| 2026-04-28 11:11 | -13.49860 | -176.87832 | 13061 ft | 305 kts | 70° |
| 2026-04-28 11:11 | -13.49116 | -176.85791 | 12700 ft | 303 kts | 70° |
| 2026-04-28 11:11 | -13.48379 | -176.83772 | 12339 ft | 301 kts | 70° |
| 2026-04-28 11:12 | -13.47647 | -176.81768 | 11980 ft | 299 kts | 70° |
| 2026-04-28 11:12 | -13.46920 | -176.79777 | 11631 ft | 297 kts | 70° |
| 2026-04-28 11:12 | -13.46194 | -176.77794 | 11270 ft | 296 kts | 70° |
| 2026-04-28 11:12 | -13.45474 | -176.75823 | 10919 ft | 294 kts | 70° |
| 2026-04-28 11:13 | -13.44758 | -176.73864 | 10566 ft | 293 kts | 70° |
| 2026-04-28 11:13 | -13.44045 | -176.71912 | 10215 ft | 291 kts | 70° |
| 2026-04-28 11:13 | -13.43333 | -176.69964 | 9865 ft | 290 kts | 70° |
| 2026-04-28 11:13 | -13.42625 | -176.68024 | 9483 ft | 289 kts | 70° |
| 2026-04-28 11:14 | -13.41921 | -176.66101 | 9136 ft | 287 kts | 70° |
| 2026-04-28 11:14 | -13.41221 | -176.64191 | 8792 ft | 285 kts | 70° |
| 2026-04-28 11:14 | -13.40528 | -176.62296 | 8444 ft | 283 kts | 70° |
| 2026-04-28 11:14 | -13.40073 | -176.61047 | 8214 ft | 282 kts | 71° |
| 2026-04-28 11:15 | -13.39387 | -176.59168 | 7877 ft | 280 kts | 71° |
| 2026-04-28 11:15 | -13.38703 | -176.57301 | 7537 ft | 278 kts | 71° |
| 2026-04-28 11:15 | -13.37803 | -176.54844 | 7091 ft | 277 kts | 70° |
| 2026-04-28 11:15 | -13.37128 | -176.52997 | 6753 ft | 276 kts | 71° |
| 2026-04-28 11:16 | -13.36674 | -176.51753 | 6518 ft | 275 kts | 71° |
| 2026-04-28 11:16 | -13.36002 | -176.49916 | 6171 ft | 275 kts | 71° |
| 2026-04-28 11:16 | -13.35331 | -176.48080 | 5831 ft | 274 kts | 71° |
| 2026-04-28 11:16 | -13.34667 | -176.46266 | 5620 ft | 267 kts | 71° |
| 2026-04-28 11:17 | -13.34024 | -176.44517 | 5524 ft | 257 kts | 71° |
| 2026-04-28 11:17 | -13.33406 | -176.42835 | 5427 ft | 247 kts | 70° |
| 2026-04-28 11:17 | -13.32727 | -176.41254 | 5323 ft | 239 kts | 58° |
| 2026-04-28 11:17 | -13.31570 | -176.40105 | 5217 ft | 234 kts | 33° |
| 2026-04-28 11:18 | -13.30023 | -176.39569 | 4854 ft | 241 kts | 7° |
| 2026-04-28 11:18 | -13.28363 | -176.39554 | 4477 ft | 236 kts | 4° |
| 2026-04-28 11:18 | -13.26741 | -176.39566 | 4126 ft | 230 kts | 3° |
| 2026-04-28 11:18 | -13.25166 | -176.39454 | 3772 ft | 217 kts | 25° |
| 2026-04-28 11:19 | -13.24091 | -176.38565 | 3475 ft | 196 kts | 66° |
| 2026-04-28 11:19 | -13.23837 | -176.37257 | 3239 ft | 187 kts | 91° |
| 2026-04-28 11:19 | -13.23840 | -176.35925 | 2947 ft | 186 kts | 91° |
| 2026-04-28 11:19 | -13.23841 | -176.34603 | 2709 ft | 183 kts | 91° |
| 2026-04-28 11:20 | -13.23842 | -176.33303 | 2417 ft | 181 kts | 91° |
| 2026-04-28 11:20 | -13.23842 | -176.32026 | 2149 ft | 177 kts | 91° |
| 2026-04-28 11:20 | -13.23841 | -176.30774 | 1899 ft | 174 kts | 91° |
| 2026-04-28 11:20 | -13.23839 | -176.29564 | 1660 ft | 162 kts | 91° |
| 2026-04-28 11:21 | -13.23837 | -176.28515 | 1489 ft | 145 kts | 92° |
| 2026-04-28 11:21 | -13.23836 | -176.27519 | 1307 ft | 135 kts | 92° |
| 2026-04-28 11:21 | -13.23836 | -176.26564 | 1118 ft | 133 kts | 93° |
| 2026-04-28 11:21 | -13.23836 | -176.25613 | 946 ft | 134 kts | 93° |
| 2026-04-28 11:22 | -13.23835 | -176.24674 | 787 ft | 132 kts | 94° |
| 2026-04-28 11:22 | -13.23834 | -176.23705 | 611 ft | 138 kts | 94° |
| 2026-04-28 11:22 | -13.23832 | -176.22717 | 409 ft | 140 kts | 91° |
| 2026-04-28 11:22 | -13.23834 | -176.21722 | 324 ft | 140 kts | 92° |
| 2026-04-28 11:23 | -13.23835 | -176.20736 | 165 ft | 137 kts | 92° |
| 2026-04-28 11:23 | -13.23836 | -176.19853 | 134 ft | 100 kts | 89° |
| 2026-04-28 11:23 | -13.23829 | -176.19452 | 135 ft | 12 kts | 90° |
| 2026-04-28 11:23 | -13.23824 | -176.19431 | 135 ft | 6 kts | 65° |
| 2026-04-28 11:24 | -13.23842 | -176.19406 | 135 ft | 6 kts | 230° |
| 2026-04-28 11:24 | -13.23843 | -176.19465 | 135 ft | 11 kts | 274° |
| 2026-04-28 11:24 | -13.23837 | -176.19560 | 134 ft | 9 kts | 258° |
| 2026-04-28 11:24 | -13.23905 | -176.19588 | 127 ft | 16 kts | 179° |
| 2026-04-28 11:25 | -13.23988 | -176.19588 | 125 ft | 7 kts | 180° |
| 2026-04-28 11:25 | -13.24046 | -176.19597 | 123 ft | 4 kts | 190° |
| 2026-04-28 11:25 | -13.24052 | -176.19598 | 124 ft | 0 kts | 190° |